createdAt,value
2023-03-29T00:01:00.776Z,99937.16
2023-03-29T00:02:05.233Z,99940.66
2023-03-29T00:03:13.162Z,99932.00
2023-03-29T00:04:19.896Z,99928.56
2023-03-29T00:05:28.902Z,99937.31
2023-03-29T00:06:51.643Z,99937.41
2023-03-29T00:08:02.367Z,99933.22
2023-03-29T00:09:06.352Z,99934.03
2023-03-29T00:10:15.064Z,99936.66
2023-03-29T00:11:23.576Z,99937.47
2023-03-29T00:12:28.679Z,99937.53
2023-03-29T00:13:33.559Z,99933.16
2023-03-29T00:14:43.464Z,99939.16
2023-03-29T00:15:47.459Z,99940.16
2023-03-29T00:16:51.411Z,99934.16
2023-03-29T00:18:00.034Z,99941.88
2023-03-29T00:19:23.724Z,99940.91
2023-03-29T00:20:32.092Z,99939.22
2023-03-29T00:21:45.505Z,99934.03
2023-03-29T00:22:55.520Z,99939.28
2023-03-29T00:24:07.572Z,99939.25
2023-03-29T00:25:14.285Z,99939.31
2023-03-29T00:26:35.458Z,99940.28
2023-03-29T00:27:45.051Z,99938.53
2023-03-29T00:29:01.284Z,99943.78
2023-03-29T00:30:21.356Z,99949.03
2023-03-29T00:31:29.285Z,99945.69
2023-03-29T00:32:50.120Z,99948.28
2023-03-29T00:33:55.421Z,99951.75
2023-03-29T00:35:12.090Z,99947.47
2023-03-29T00:36:20.868Z,99952.66
2023-03-29T00:37:27.171Z,99948.31
2023-03-29T00:38:38.209Z,99946.47
2023-03-29T00:39:49.629Z,99952.66
2023-03-29T00:41:07.958Z,99943.06
2023-03-29T00:42:20.916Z,99955.31
2023-03-29T00:43:36.183Z,99948.34
2023-03-29T00:45:22.003Z,99946.66
2023-03-29T00:46:32.296Z,99952.72
2023-03-29T00:47:47.828Z,99951.88
2023-03-29T00:49:21.420Z,99944.84
2023-03-29T00:50:43.278Z,99948.44
2023-03-29T00:51:48.261Z,99941.44
2023-03-29T00:53:06.862Z,99940.59
2023-03-29T00:54:21.619Z,99950.16
2023-03-29T00:55:38.884Z,99941.44
2023-03-29T00:56:51.801Z,99937.97
2023-03-29T00:58:01.680Z,99944.91
2023-03-29T00:59:18.877Z,99945.97
2023-03-29T01:00:34.944Z,99938.13
2023-03-29T01:01:57.398Z,99941.69
2023-03-29T01:03:09.109Z,99943.34
2023-03-29T01:04:36.533Z,99944.13
2023-03-29T01:05:46.631Z,99936.38
2023-03-29T01:07:18.823Z,99932.84
2023-03-29T01:08:32.830Z,99932.84
2023-03-29T01:09:42.061Z,99931.13
2023-03-29T01:11:04.748Z,99936.28
2023-03-29T01:12:24.686Z,99935.44
2023-03-29T01:13:49.695Z,99932.03
2023-03-29T01:15:14.301Z,99928.59
2023-03-29T01:16:22.425Z,99933.13
2023-03-29T01:17:27.168Z,99934.72
2023-03-29T01:18:34.440Z,99930.28
2023-03-29T01:19:53.926Z,99926.75
2023-03-29T01:21:22.836Z,99923.28
2023-03-29T01:22:53.493Z,99925.94
2023-03-29T01:24:25.357Z,99921.63
2023-03-29T01:26:26.390Z,99925.94
2023-03-29T01:29:32.120Z,99922.50
2023-03-29T01:30:54.880Z,99925.13
2023-03-29T01:32:11.905Z,99930.38
2023-03-29T01:33:27.058Z,99922.66
2023-03-29T01:34:49.880Z,99919.94
2023-03-29T01:36:32.547Z,99920.81
2023-03-29T01:37:57.955Z,99913.84
2023-03-29T01:39:10.107Z,99915.53
2023-03-29T01:40:15.830Z,99925.94
2023-03-29T01:41:41.391Z,99916.31
2023-03-29T01:43:32.662Z,99914.66
2023-03-29T01:45:12.839Z,99918.06
2023-03-29T01:46:42.125Z,99917.22
2023-03-29T01:48:27.570Z,99915.50
2023-03-29T01:49:46.553Z,99917.16
2023-03-29T01:50:56.345Z,99923.22
2023-03-29T01:52:30.492Z,99919.81
2023-03-29T01:53:56.635Z,99920.69
2023-03-29T01:55:21.835Z,99917.28
2023-03-29T01:56:42.567Z,99913.84
2023-03-29T01:57:57.132Z,99919.94
2023-03-29T01:59:10.152Z,99916.38
2023-03-29T02:00:25.180Z,99919.00
2023-03-29T02:01:38.780Z,99928.53
2023-03-29T02:02:46.427Z,99923.28
2023-03-29T02:04:00.527Z,99917.22
2023-03-29T02:05:11.981Z,99928.53
2023-03-29T02:06:30.744Z,99927.66
2023-03-29T02:07:44.441Z,99925.97
2023-03-29T02:08:56.148Z,99926.84
2023-03-29T02:10:02.526Z,99921.63
2023-03-29T02:11:18.742Z,99926.00
2023-03-29T02:12:25.896Z,99926.88
2023-03-29T02:13:45.265Z,99922.63
2023-03-29T02:14:51.212Z,99926.91
2023-03-29T02:16:04.519Z,99923.47
2023-03-29T02:17:27.129Z,99923.44
2023-03-29T02:18:49.117Z,99919.19
2023-03-29T02:20:14.432Z,99921.84
2023-03-29T02:21:52.137Z,99917.50
2023-03-29T02:23:15.252Z,99917.56
2023-03-29T02:24:30.953Z,99915.84
2023-03-29T02:25:38.151Z,99920.19
2023-03-29T02:26:41.815Z,99916.72
2023-03-29T02:27:51.171Z,99914.09
2023-03-29T02:28:59.362Z,99920.22
2023-03-29T02:30:08.191Z,99916.72
2023-03-29T02:31:34.112Z,99915.00
2023-03-29T02:33:05.908Z,99922.94
2023-03-29T02:34:59.228Z,99922.97
2023-03-29T02:36:40.934Z,99914.41
2023-03-29T02:37:56.230Z,99919.59
2023-03-29T02:39:07.486Z,99921.31
2023-03-29T02:40:16.383Z,99923.00
2023-03-29T02:41:26.678Z,99917.78
2023-03-29T02:42:36.774Z,99924.69
2023-03-29T02:43:48.537Z,99920.38
2023-03-29T02:45:05.144Z,99917.75
2023-03-29T02:46:20.398Z,99921.22
2023-03-29T02:47:40.790Z,99921.19
2023-03-29T02:48:59.778Z,99924.69
2023-03-29T02:50:07.029Z,99922.94
2023-03-29T02:51:22.461Z,99926.44
2023-03-29T02:52:37.327Z,99912.50
2023-03-29T02:54:16.321Z,99919.59
2023-03-29T02:55:24.820Z,99919.56
2023-03-29T02:56:28.890Z,99928.28
2023-03-29T02:57:32.784Z,99932.69
2023-03-29T02:58:37.030Z,99924.84
2023-03-29T02:59:44.068Z,99926.53
2023-03-29T03:00:49.540Z,99923.97
2023-03-29T03:01:55.681Z,99918.75
2023-03-29T03:03:01.899Z,99923.09
2023-03-29T03:04:06.101Z,99921.38
2023-03-29T03:05:10.167Z,99923.94
2023-03-29T03:06:14.096Z,99923.09
2023-03-29T03:07:26.043Z,99923.09
2023-03-29T03:08:43.834Z,99924.88
2023-03-29T03:09:57.072Z,99927.56
2023-03-29T03:11:08.817Z,99928.47
2023-03-29T03:12:16.387Z,99925.88
2023-03-29T03:13:27.988Z,99921.56
2023-03-29T03:14:38.354Z,99925.06
2023-03-29T03:15:43.149Z,99932.03
2023-03-29T03:16:50.032Z,99929.38
2023-03-29T03:17:54.948Z,99923.28
2023-03-29T03:18:59.336Z,99928.47
2023-03-29T03:20:05.154Z,99929.34
2023-03-29T03:21:09.797Z,99927.63
2023-03-29T03:22:16.786Z,99937.19
2023-03-29T03:23:20.521Z,99936.31
2023-03-29T03:24:24.671Z,99937.28
2023-03-29T03:25:28.885Z,99932.03
2023-03-29T03:26:32.744Z,99932.91
2023-03-29T03:27:38.079Z,99935.53
2023-03-29T03:28:42.568Z,99942.50
2023-03-29T03:29:46.393Z,99939.03
2023-03-29T03:30:51.113Z,99931.19
2023-03-29T03:31:55.848Z,99934.66
2023-03-29T03:32:59.611Z,99935.56
2023-03-29T03:34:03.492Z,99937.34
2023-03-29T03:35:07.760Z,99943.47
2023-03-29T03:36:11.989Z,99942.59
2023-03-29T03:37:16.128Z,99933.00
2023-03-29T03:38:20.486Z,99941.75
2023-03-29T03:39:24.269Z,99937.41
2023-03-29T03:40:28.485Z,99933.91
2023-03-29T03:41:33.006Z,99938.31
2023-03-29T03:42:37.084Z,99934.78
2023-03-29T03:43:43.115Z,99934.91
2023-03-29T03:44:47.858Z,99940.94
2023-03-29T03:45:52.175Z,99934.88
2023-03-29T03:46:56.545Z,99935.69
2023-03-29T03:48:00.853Z,99926.16
2023-03-29T03:49:06.008Z,99930.47
2023-03-29T03:50:11.820Z,99935.72
2023-03-29T03:51:15.765Z,99932.25
2023-03-29T03:52:19.913Z,99935.78
2023-03-29T03:53:25.499Z,99935.78
2023-03-29T03:54:29.439Z,99933.16
2023-03-29T03:55:33.882Z,99931.41
2023-03-29T03:56:37.865Z,99940.16
2023-03-29T03:57:41.906Z,99944.53
2023-03-29T03:58:45.891Z,99941.06
2023-03-29T03:59:49.707Z,99942.81
2023-03-29T04:00:53.569Z,99943.72
2023-03-29T04:01:58.548Z,99943.75
2023-03-29T04:03:06.134Z,99948.94
2023-03-29T04:04:11.666Z,99944.59
2023-03-29T04:05:17.217Z,99938.53
2023-03-29T04:06:21.079Z,99946.41
2023-03-29T04:07:25.536Z,99945.56
2023-03-29T04:08:29.435Z,99944.69
2023-03-29T04:09:34.325Z,99942.06
2023-03-29T04:10:39.862Z,99941.19
2023-03-29T04:11:45.377Z,99941.16
2023-03-29T04:12:49.279Z,99937.69
2023-03-29T04:13:53.131Z,99932.53
2023-03-29T04:14:57.368Z,99942.13
2023-03-29T04:16:01.855Z,99942.97
2023-03-29T04:17:05.858Z,99944.72
2023-03-29T04:18:09.777Z,99937.78
2023-03-29T04:19:14.648Z,99944.78
2023-03-29T04:20:18.887Z,99940.44
2023-03-29T04:21:23.282Z,99938.72
2023-03-29T04:22:27.173Z,99937.84
2023-03-29T04:23:31.218Z,99936.97
2023-03-29T04:24:35.004Z,99943.06
2023-03-29T04:25:38.873Z,99942.22
2023-03-29T04:26:43.587Z,99946.56
2023-03-29T04:27:49.289Z,99941.38
2023-03-29T04:28:53.730Z,99945.81
2023-03-29T04:29:59.750Z,99944.94
2023-03-29T04:31:09.678Z,99939.75
2023-03-29T04:32:13.388Z,99935.44
2023-03-29T04:33:17.452Z,99940.69
2023-03-29T04:34:21.679Z,99934.63
2023-03-29T04:35:26.420Z,99938.09
2023-03-29T04:36:30.240Z,99938.97
2023-03-29T04:37:34.215Z,99938.09
2023-03-29T04:38:38.130Z,99939.84
2023-03-29T04:39:42.711Z,99941.56
2023-03-29T04:40:46.338Z,99938.94
2023-03-29T04:41:50.063Z,99933.75
2023-03-29T04:42:54.520Z,99933.75
2023-03-29T04:43:58.248Z,99931.16
2023-03-29T04:45:02.102Z,99925.91
2023-03-29T04:46:09.942Z,99929.41
2023-03-29T04:47:14.278Z,99933.75
2023-03-29T04:48:18.404Z,99935.47
2023-03-29T04:49:24.596Z,99928.53
2023-03-29T04:50:30.031Z,99934.63
2023-03-29T04:51:34.228Z,99941.63
2023-03-29T04:52:38.769Z,99938.97
2023-03-29T04:53:42.664Z,99936.41
2023-03-29T04:54:46.314Z,99934.63
2023-03-29T04:55:50.579Z,99935.47
2023-03-29T04:56:54.514Z,99939.75
2023-03-29T04:58:01.298Z,99936.28
2023-03-29T04:59:05.468Z,99937.31
2023-03-29T05:00:15.317Z,99932.88
2023-03-29T05:01:19.655Z,99934.59
2023-03-29T05:02:24.022Z,99936.38
2023-03-29T05:03:27.857Z,99928.50
2023-03-29T05:04:33.169Z,99938.09
2023-03-29T05:05:37.172Z,99931.97
2023-03-29T05:06:42.087Z,99932.78
2023-03-29T05:07:46.150Z,99925.81
2023-03-29T05:08:50.150Z,99934.41
2023-03-29T05:09:54.576Z,99924.84
2023-03-29T05:10:59.010Z,99926.59
2023-03-29T05:12:03.895Z,99930.91
2023-03-29T05:13:07.849Z,99936.06
2023-03-29T05:14:12.104Z,99924.72
2023-03-29T05:15:17.059Z,99927.28
2023-03-29T05:16:20.895Z,99921.09
2023-03-29T05:17:27.134Z,99917.50
2023-03-29T05:18:31.977Z,99921.75
2023-03-29T05:19:37.575Z,99925.19
2023-03-29T05:20:42.404Z,99918.13
2023-03-29T05:21:46.421Z,99917.09
2023-03-29T05:22:50.421Z,99917.72
2023-03-29T05:23:55.847Z,99926.25
2023-03-29T05:24:59.651Z,99921.66
2023-03-29T05:26:04.714Z,99920.50
2023-03-29T05:27:08.491Z,99921.06
2023-03-29T05:28:12.146Z,99928.59
2023-03-29T05:29:15.808Z,99925.78
2023-03-29T05:30:20.963Z,99925.41
2023-03-29T05:31:24.966Z,99921.47
2023-03-29T05:32:29.497Z,99922.00
2023-03-29T05:33:34.809Z,99926.00
2023-03-29T05:34:39.391Z,99920.44
2023-03-29T05:35:43.832Z,99923.47
2023-03-29T05:36:49.527Z,99925.00
2023-03-29T05:37:53.929Z,99922.84
2023-03-29T05:38:58.030Z,99930.28
2023-03-29T05:40:06.133Z,99924.84
2023-03-29T05:41:11.084Z,99927.94
2023-03-29T05:42:16.656Z,99933.69
2023-03-29T05:43:21.278Z,99935.16
2023-03-29T05:44:25.109Z,99928.72
2023-03-29T05:45:29.930Z,99926.66
2023-03-29T05:46:34.298Z,99929.00
2023-03-29T05:47:38.398Z,99930.44
2023-03-29T05:48:42.440Z,99925.00
2023-03-29T05:49:46.714Z,99928.22
2023-03-29T05:50:54.028Z,99934.09
2023-03-29T05:51:58.835Z,99929.47
2023-03-29T05:53:03.866Z,99936.31
2023-03-29T05:54:08.976Z,99926.22
2023-03-29T05:55:16.055Z,99925.59
2023-03-29T05:56:20.902Z,99927.81
2023-03-29T05:57:24.935Z,99922.94
2023-03-29T05:58:29.190Z,99920.50
2023-03-29T05:59:34.012Z,99924.16
2023-03-29T06:00:40.173Z,99923.75
2023-03-29T06:01:47.081Z,99922.38
2023-03-29T06:03:03.759Z,99922.47
2023-03-29T06:04:15.742Z,99925.00
2023-03-29T06:05:20.659Z,99912.56
2023-03-29T06:06:24.301Z,99915.78
2023-03-29T06:07:28.664Z,99922.31
2023-03-29T06:08:35.130Z,99925.53
2023-03-29T06:09:40.037Z,99927.50
2023-03-29T06:10:44.017Z,99930.19
2023-03-29T06:11:48.117Z,99920.25
2023-03-29T06:12:53.003Z,99927.91
2023-03-29T06:13:57.860Z,99919.69
2023-03-29T06:15:05.084Z,99918.91
2023-03-29T06:16:11.120Z,99920.44
2023-03-29T06:17:21.189Z,99916.28
2023-03-29T06:18:31.786Z,99919.66
2023-03-29T06:19:41.833Z,99923.69
2023-03-29T06:20:57.247Z,99917.53
2023-03-29T06:22:07.407Z,99920.41
2023-03-29T06:23:17.593Z,99924.66
2023-03-29T06:24:25.855Z,99918.63
2023-03-29T06:25:34.253Z,99922.41
2023-03-29T06:26:38.100Z,99925.22
2023-03-29T06:27:41.960Z,99921.66
2023-03-29T06:28:45.691Z,99925.31
2023-03-29T06:29:49.371Z,99921.41
2023-03-29T06:30:56.652Z,99921.63
2023-03-29T06:32:00.626Z,99915.97
2023-03-29T06:33:07.150Z,99924.00
2023-03-29T06:34:10.801Z,99920.69
2023-03-29T06:35:15.438Z,99921.94
2023-03-29T06:36:20.330Z,99926.34
2023-03-29T06:37:24.095Z,99919.66
2023-03-29T06:38:28.770Z,99926.53
2023-03-29T06:39:33.189Z,99923.53
2023-03-29T06:40:39.349Z,99922.56
2023-03-29T06:41:43.961Z,99919.31
2023-03-29T06:42:51.808Z,99922.59
2023-03-29T06:43:58.455Z,99932.03
2023-03-29T06:45:04.102Z,99916.72
2023-03-29T06:46:12.873Z,99927.22
2023-03-29T06:47:17.771Z,99920.56
2023-03-29T06:48:21.711Z,99919.03
2023-03-29T06:49:26.570Z,99921.69
2023-03-29T06:50:31.785Z,99923.56
2023-03-29T06:51:36.174Z,99918.88
2023-03-29T06:52:39.956Z,99926.53
2023-03-29T06:53:44.028Z,99922.91
2023-03-29T06:54:48.317Z,99924.81
2023-03-29T06:55:52.608Z,99926.34
2023-03-29T06:56:57.602Z,99916.69
2023-03-29T06:58:02.859Z,99927.28
2023-03-29T06:59:07.085Z,99919.03
2023-03-29T07:00:18.215Z,99922.59
2023-03-29T07:01:21.931Z,99920.78
2023-03-29T07:02:25.919Z,99922.41
2023-03-29T07:03:30.172Z,99920.34
2023-03-29T07:04:35.676Z,99922.53
2023-03-29T07:05:42.438Z,99920.22
2023-03-29T07:06:48.617Z,99920.97
2023-03-29T07:08:11.365Z,99923.03
2023-03-29T07:09:19.397Z,99925.38
2023-03-29T07:10:28.731Z,99924.94
2023-03-29T07:11:36.996Z,99923.50
2023-03-29T07:12:41.066Z,99925.72
2023-03-29T07:13:46.312Z,99925.19
2023-03-29T07:14:50.489Z,99931.31
2023-03-29T07:15:54.492Z,99921.63
2023-03-29T07:16:59.027Z,99920.94
2023-03-29T07:18:05.107Z,99917.19
2023-03-29T07:19:09.561Z,99911.47
2023-03-29T07:20:14.723Z,99914.44
2023-03-29T07:21:18.915Z,99914.03
2023-03-29T07:22:22.916Z,99913.56
2023-03-29T07:23:26.736Z,99915.19
2023-03-29T07:24:30.884Z,99905.28
2023-03-29T07:25:34.860Z,99909.53
2023-03-29T07:26:46.306Z,99911.22
2023-03-29T07:27:56.873Z,99910.59
2023-03-29T07:29:01.159Z,99909.16
2023-03-29T07:30:11.206Z,99909.47
2023-03-29T07:31:15.607Z,99914.19
2023-03-29T07:32:19.603Z,99905.47
2023-03-29T07:33:24.433Z,99908.88
2023-03-29T07:34:32.817Z,99912.16
2023-03-29T07:35:38.404Z,99913.34
2023-03-29T07:36:43.927Z,99904.69
2023-03-29T07:37:47.940Z,99907.88
2023-03-29T07:38:52.899Z,99900.84
2023-03-29T07:40:00.494Z,99909.88
2023-03-29T07:41:08.317Z,99903.75
2023-03-29T07:42:13.309Z,99913.69
2023-03-29T07:43:18.462Z,99903.31
2023-03-29T07:44:24.431Z,99912.31
2023-03-29T07:45:29.247Z,99901.94
2023-03-29T07:46:33.069Z,99903.63
2023-03-29T07:47:37.076Z,99901.09
2023-03-29T07:48:41.588Z,99901.72
2023-03-29T07:49:45.422Z,99892.19
2023-03-29T07:50:49.416Z,99891.31
2023-03-29T07:51:55.165Z,99893.09
2023-03-29T07:53:00.952Z,99899.91
2023-03-29T07:54:06.650Z,99897.97
2023-03-29T07:55:13.411Z,99902.25
2023-03-29T07:56:17.256Z,99894.03
2023-03-29T07:57:25.381Z,99898.06
2023-03-29T07:58:29.790Z,99897.16
2023-03-29T07:59:34.153Z,99894.25
2023-03-29T08:00:40.151Z,99887.69
2023-03-29T08:01:46.089Z,99892.41
2023-03-29T08:02:52.613Z,99892.06
2023-03-29T08:03:56.352Z,99890.13
2023-03-29T08:05:00.636Z,99887.34
2023-03-29T08:06:05.265Z,99890.13
2023-03-29T08:07:09.104Z,99879.03
2023-03-29T08:08:14.359Z,99887.47
2023-03-29T08:09:18.098Z,99882.50
2023-03-29T08:10:23.157Z,99893.50
2023-03-29T08:11:27.679Z,99882.50
2023-03-29T08:12:31.680Z,99885.22
2023-03-29T08:13:36.123Z,99885.34
2023-03-29T08:14:39.949Z,99876.28
2023-03-29T08:15:48.854Z,99878.69
2023-03-29T08:16:52.643Z,99872.84
2023-03-29T08:17:56.510Z,99877.28
2023-03-29T08:19:00.280Z,99877.47
2023-03-29T08:20:06.634Z,99884.09
2023-03-29T08:21:11.132Z,99865.13
2023-03-29T08:22:15.018Z,99878.63
2023-03-29T08:23:19.550Z,99875.72
2023-03-29T08:24:23.600Z,99874.13
2023-03-29T08:25:27.694Z,99873.06
2023-03-29T08:26:31.820Z,99867.72
2023-03-29T08:27:37.966Z,99876.66
2023-03-29T08:28:43.083Z,99865.66
2023-03-29T08:29:47.088Z,99869.09
2023-03-29T08:30:51.269Z,99870.59
2023-03-29T08:31:56.694Z,99872.63
2023-03-29T08:33:01.048Z,99872.38
2023-03-29T08:34:04.945Z,99865.75
2023-03-29T08:35:09.802Z,99863.94
2023-03-29T08:36:13.924Z,99862.94
2023-03-29T08:37:20.125Z,99863.09
2023-03-29T08:38:24.066Z,99862.25
2023-03-29T08:39:28.484Z,99863.44
2023-03-29T08:40:32.746Z,99868.16
2023-03-29T08:42:25.238Z,99861.75
2023-03-29T08:43:44.645Z,99869.72
2023-03-29T08:45:16.337Z,99865.06
2023-03-29T08:46:35.472Z,99863.00
2023-03-29T08:47:58.677Z,99857.66
2023-03-29T08:49:08.077Z,99862.22
2023-03-29T08:50:14.081Z,99861.09
2023-03-29T08:51:36.780Z,99853.19
2023-03-29T08:53:00.685Z,99856.94
2023-03-29T08:54:18.983Z,99857.53
2023-03-29T08:55:59.035Z,99859.03
2023-03-29T08:57:21.190Z,99862.22
2023-03-29T08:58:33.249Z,99864.34
2023-03-29T08:59:38.960Z,99864.59
2023-03-29T09:00:53.079Z,99859.03
2023-03-29T09:02:00.496Z,99856.53
2023-03-29T09:03:19.745Z,99852.59
2023-03-29T09:04:37.821Z,99848.47
2023-03-29T09:05:52.580Z,99859.34
2023-03-29T09:06:56.533Z,99861.94
2023-03-29T09:08:02.759Z,99854.84
2023-03-29T09:09:29.174Z,99857.38
2023-03-29T09:11:04.160Z,99853.78
2023-03-29T09:12:54.821Z,99846.25
2023-03-29T09:14:23.670Z,99845.72
2023-03-29T09:16:09.370Z,99843.81
2023-03-29T09:17:54.522Z,99846.00
2023-03-29T09:19:45.854Z,99854.06
2023-03-29T09:21:20.350Z,99845.72
2023-03-29T09:22:50.807Z,99852.22
2023-03-29T09:24:34.131Z,99852.38
2023-03-29T09:25:56.078Z,99851.75
2023-03-29T09:27:16.078Z,99846.81
2023-03-29T09:28:44.797Z,99846.53
2023-03-29T09:30:29.144Z,99838.91
2023-03-29T09:31:48.725Z,99841.19
2023-03-29T09:33:12.441Z,99848.22
2023-03-29T09:34:50.714Z,99850.06
2023-03-29T09:36:12.286Z,99838.66
2023-03-29T09:37:37.398Z,99843.06
2023-03-29T09:38:48.183Z,99839.53
2023-03-29T09:39:55.973Z,99842.50
2023-03-29T09:41:33.456Z,99848.03
2023-03-29T09:42:46.802Z,99849.44
2023-03-29T09:43:56.037Z,99844.56
2023-03-29T09:45:13.103Z,99844.75
2023-03-29T09:46:57.175Z,99842.91
2023-03-29T09:48:15.163Z,99836.00
2023-03-29T09:49:28.955Z,99833.81
2023-03-29T09:50:43.424Z,99833.03
2023-03-29T09:51:50.352Z,99838.59
2023-03-29T09:52:55.306Z,99836.66
2023-03-29T09:54:01.831Z,99830.50
2023-03-29T09:55:16.318Z,99827.66
2023-03-29T09:56:20.327Z,99824.03
2023-03-29T09:57:24.052Z,99823.81
2023-03-29T09:58:33.158Z,99822.19
2023-03-29T09:59:37.079Z,99831.56
2023-03-29T10:00:41.533Z,99828.03
2023-03-29T10:01:45.940Z,99826.41
2023-03-29T10:02:57.158Z,99827.03
2023-03-29T10:04:01.662Z,99820.13
2023-03-29T10:05:16.048Z,99825.84
2023-03-29T10:06:24.649Z,99838.06
2023-03-29T10:07:46.441Z,99827.47
2023-03-29T10:08:59.091Z,99823.09
2023-03-29T10:10:03.269Z,99828.91
2023-03-29T10:11:22.186Z,99828.59
2023-03-29T10:12:28.049Z,99834.47
2023-03-29T10:13:37.022Z,99837.63
2023-03-29T10:14:53.586Z,99832.47
2023-03-29T10:16:08.078Z,99825.97
2023-03-29T10:17:15.793Z,99831.38
2023-03-29T10:18:19.866Z,99819.47
2023-03-29T10:19:35.970Z,99828.38
2023-03-29T10:20:41.588Z,99822.31
2023-03-29T10:21:49.175Z,99825.47
2023-03-29T10:22:59.332Z,99812.38
2023-03-29T10:24:03.512Z,99824.06
2023-03-29T10:25:17.245Z,99821.41
2023-03-29T10:26:32.899Z,99819.53
2023-03-29T10:27:37.163Z,99818.19
2023-03-29T10:28:41.861Z,99815.63
2023-03-29T10:29:46.300Z,99813.66
2023-03-29T10:30:56.656Z,99818.03
2023-03-29T10:32:00.417Z,99815.31
2023-03-29T10:33:07.029Z,99806.94
2023-03-29T10:34:16.930Z,99822.81
2023-03-29T10:35:42.233Z,99809.50
2023-03-29T10:37:01.556Z,99815.38
2023-03-29T10:38:12.472Z,99807.44
2023-03-29T10:39:16.542Z,99811.09
2023-03-29T10:40:28.924Z,99810.16
2023-03-29T10:41:36.497Z,99806.94
2023-03-29T10:43:01.415Z,99803.78
2023-03-29T10:44:05.824Z,99808.19
2023-03-29T10:45:34.912Z,99795.31
2023-03-29T10:46:48.337Z,99797.97
2023-03-29T10:47:57.597Z,99797.78
2023-03-29T10:49:16.140Z,99791.81
2023-03-29T10:50:20.603Z,99797.03
2023-03-29T10:51:28.025Z,99800.59
2023-03-29T10:52:32.090Z,99798.72
2023-03-29T10:53:39.004Z,99795.06
2023-03-29T10:54:44.116Z,99794.66
2023-03-29T10:56:01.024Z,99793.13
2023-03-29T10:57:11.230Z,99780.69
2023-03-29T10:58:53.691Z,99794.19
2023-03-29T11:00:29.887Z,99795.13
2023-03-29T11:02:05.345Z,99792.25
2023-03-29T11:03:37.744Z,99786.44
2023-03-29T11:05:13.753Z,99787.75
2023-03-29T11:06:47.546Z,99785.91
2023-03-29T11:08:15.017Z,99783.25
2023-03-29T11:10:07.951Z,99784.63
2023-03-29T11:12:15.538Z,99777.72
2023-03-29T11:14:13.709Z,99777.63
2023-03-29T11:16:01.922Z,99773.53
2023-03-29T11:17:42.510Z,99771.38
2023-03-29T11:19:50.588Z,99767.88
2023-03-29T11:21:14.897Z,99773.84
2023-03-29T11:23:03.939Z,99775.31
2023-03-29T11:24:35.823Z,99774.22
2023-03-29T11:26:22.648Z,99764.56
2023-03-29T11:28:02.164Z,99768.56
2023-03-29T11:30:03.566Z,99761.72
2023-03-29T11:31:28.017Z,99765.56
2023-03-29T11:33:06.419Z,99752.22
2023-03-29T11:35:14.109Z,99750.44
2023-03-29T11:36:57.340Z,99753.69
2023-03-29T11:38:44.017Z,99746.59
2023-03-29T11:40:00.634Z,99746.75
2023-03-29T11:41:37.380Z,99743.41
2023-03-29T11:43:03.254Z,99752.13
2023-03-29T11:44:15.864Z,99744.00
2023-03-29T11:45:48.497Z,99749.66
2023-03-29T11:47:30.219Z,99731.97
2023-03-29T11:48:44.073Z,99736.03
2023-03-29T11:49:58.668Z,99728.63
2023-03-29T11:51:13.296Z,99726.66
2023-03-29T11:52:27.725Z,99725.28
2023-03-29T11:53:49.295Z,99717.03
2023-03-29T11:55:18.233Z,99719.06
2023-03-29T11:57:08.611Z,99715.22
2023-03-29T11:58:38.715Z,99723.03
2023-03-29T11:59:59.322Z,99721.78
2023-03-29T12:01:33.588Z,99718.44
2023-03-29T12:02:44.818Z,99714.16
2023-03-29T12:03:59.419Z,99722.38
2023-03-29T12:05:28.381Z,99728.38
2023-03-29T12:06:53.258Z,99718.44
2023-03-29T12:08:32.401Z,99717.03
2023-03-29T12:09:50.148Z,99717.47
2023-03-29T12:11:34.181Z,99719.22
2023-03-29T12:13:04.562Z,99714.72
2023-03-29T12:14:29.790Z,99716.91
2023-03-29T12:16:13.874Z,99719.22
2023-03-29T12:17:29.251Z,99708.50
2023-03-29T12:18:47.954Z,99703.69
2023-03-29T12:20:27.135Z,99702.75
2023-03-29T12:21:34.820Z,99710.38
2023-03-29T12:22:40.069Z,99711.13
2023-03-29T12:23:49.071Z,99710.16
2023-03-29T12:24:58.531Z,99700.59
2023-03-29T12:26:29.876Z,99698.69
2023-03-29T12:27:55.415Z,99688.53
2023-03-29T12:29:58.669Z,99687.09
2023-03-29T12:31:21.466Z,99695.41
2023-03-29T12:33:16.102Z,99689.44
2023-03-29T12:34:38.031Z,99695.69
2023-03-29T12:36:29.475Z,99691.50
2023-03-29T12:38:15.307Z,99682.59
2023-03-29T12:39:21.767Z,99692.28
2023-03-29T12:40:44.467Z,99686.50
2023-03-29T12:41:53.689Z,99684.75
2023-03-29T12:43:07.628Z,99684.97
2023-03-29T12:44:23.806Z,99682.31
2023-03-29T12:45:48.846Z,99690.34
2023-03-29T12:47:00.681Z,99687.22
2023-03-29T12:48:12.462Z,99679.06
2023-03-29T12:49:33.005Z,99675.47
2023-03-29T12:51:01.376Z,99688.81
2023-03-29T12:52:27.482Z,99681.91
2023-03-29T12:53:42.380Z,99680.97
2023-03-29T12:54:56.349Z,99670.34
2023-03-29T12:56:03.852Z,99671.09
2023-03-29T12:57:44.176Z,99672.25
2023-03-29T12:58:59.541Z,99662.66
2023-03-29T13:00:18.081Z,99664.47
2023-03-29T13:01:38.629Z,99664.47
2023-03-29T13:02:49.481Z,99661.81
2023-03-29T13:04:25.527Z,99655.50
2023-03-29T13:05:37.004Z,99653.69
2023-03-29T13:07:03.524Z,99644.69
2023-03-29T13:08:33.571Z,99652.75
2023-03-29T13:10:10.653Z,99660.88
2023-03-29T13:11:53.869Z,99662.00
2023-03-29T13:13:18.458Z,99659.25
2023-03-29T13:14:32.845Z,99652.44
2023-03-29T13:15:54.801Z,99656.50
2023-03-29T13:17:35.705Z,99660.97
2023-03-29T13:19:03.876Z,99656.50
2023-03-29T13:20:45.775Z,99662.59
2023-03-29T13:22:44.273Z,99649.34
2023-03-29T13:24:23.058Z,99647.25
2023-03-29T13:25:38.930Z,99646.22
2023-03-29T13:27:17.005Z,99634.69
2023-03-29T13:28:25.584Z,99637.91
2023-03-29T13:30:24.878Z,99638.47
2023-03-29T13:32:32.225Z,99637.63
2023-03-29T13:34:34.085Z,99638.31
2023-03-29T13:36:00.504Z,99637.34
2023-03-29T13:37:58.194Z,99631.94
2023-03-29T13:39:07.815Z,99628.19
2023-03-29T13:40:30.961Z,99624.38
2023-03-29T13:41:40.932Z,99625.06
2023-03-29T13:43:37.789Z,99622.31
2023-03-29T13:44:59.100Z,99619.66
2023-03-29T13:46:37.941Z,99620.41
2023-03-29T13:47:54.862Z,99616.78
2023-03-29T13:49:35.985Z,99617.94
2023-03-29T13:50:53.423Z,99612.66
2023-03-29T13:52:36.134Z,99611.50
2023-03-29T13:54:14.124Z,99615.78
2023-03-29T13:55:35.527Z,99608.59
2023-03-29T13:57:16.500Z,99612.69
2023-03-29T13:58:36.426Z,99608.41
2023-03-29T14:00:21.529Z,99606.31
2023-03-29T14:01:47.016Z,99601.00
2023-03-29T14:03:30.074Z,99600.75
2023-03-29T14:05:10.467Z,99589.75
2023-03-29T14:06:45.188Z,99597.72
2023-03-29T14:08:26.576Z,99593.91
2023-03-29T14:09:52.990Z,99593.69
2023-03-29T14:11:04.204Z,99595.00
2023-03-29T14:12:16.138Z,99591.00
2023-03-29T14:13:28.501Z,99591.59
2023-03-29T14:14:51.704Z,99595.66
2023-03-29T14:16:16.594Z,99594.22
2023-03-29T14:17:26.415Z,99592.44
2023-03-29T14:18:45.072Z,99593.75
2023-03-29T14:19:57.782Z,99589.38
2023-03-29T14:21:03.458Z,99581.72
2023-03-29T14:22:19.009Z,99590.44
2023-03-29T14:23:36.829Z,99583.44
2023-03-29T14:24:51.943Z,99587.69
2023-03-29T14:26:04.515Z,99577.72
2023-03-29T14:27:14.379Z,99576.56
2023-03-29T14:28:26.614Z,99573.91
2023-03-29T14:29:35.825Z,99572.41
2023-03-29T14:30:49.875Z,99586.44
2023-03-29T14:31:59.927Z,99590.13
2023-03-29T14:33:06.836Z,99585.13